sensor_id;sensor_type;location;lat;lon;timestamp;P1;durP1;ratioP1;P2;durP2;ratioP2
15151;SDS011;7676;50.900;6.234;2024-02-14T00:04:18;2.60;;;1.00;;
15151;SDS011;7676;50.900;6.234;2024-02-14T00:19:22;1.17;;;0.93;;
15151;SDS011;7676;50.900;6.234;2024-02-14T00:34:25;2.27;;;1.03;;
15151;SDS011;7676;50.900;6.234;2024-02-14T00:49:28;1.10;;;0.80;;
15151;SDS011;7676;50.900;6.234;2024-02-14T01:04:31;1.93;;;0.93;;
15151;SDS011;7676;50.900;6.234;2024-02-14T01:19:33;1.43;;;0.80;;
15151;SDS011;7676;50.900;6.234;2024-02-14T01:34:36;1.13;;;0.90;;
15151;SDS011;7676;50.900;6.234;2024-02-14T01:49:39;1.20;;;0.90;;
15151;SDS011;7676;50.900;6.234;2024-02-14T02:04:42;1.47;;;1.10;;
15151;SDS011;7676;50.900;6.234;2024-02-14T02:19:44;1.00;;;0.77;;
15151;SDS011;7676;50.900;6.234;2024-02-14T02:34:47;1.80;;;1.40;;
15151;SDS011;7676;50.900;6.234;2024-02-14T02:49:49;1.60;;;1.20;;
15151;SDS011;7676;50.900;6.234;2024-02-14T03:04:53;2.17;;;1.47;;
15151;SDS011;7676;50.900;6.234;2024-02-14T03:19:56;2.43;;;1.67;;
15151;SDS011;7676;50.900;6.234;2024-02-14T03:34:59;2.90;;;2.10;;
15151;SDS011;7676;50.900;6.234;2024-02-14T03:50:02;3.00;;;1.90;;
15151;SDS011;7676;50.900;6.234;2024-02-14T04:05:07;2.27;;;1.70;;
15151;SDS011;7676;50.900;6.234;2024-02-14T04:20:10;2.70;;;1.67;;
15151;SDS011;7676;50.900;6.234;2024-02-14T04:35:13;2.40;;;1.80;;
15151;SDS011;7676;50.900;6.234;2024-02-14T04:50:15;1.87;;;1.60;;
15151;SDS011;7676;50.900;6.234;2024-02-14T05:05:18;1.87;;;1.77;;
15151;SDS011;7676;50.900;6.234;2024-02-14T05:20:22;2.00;;;1.70;;
15151;SDS011;7676;50.900;6.234;2024-02-14T05:35:25;1.77;;;1.63;;
15151;SDS011;7676;50.900;6.234;2024-02-14T05:50:27;2.47;;;1.60;;
15151;SDS011;7676;50.900;6.234;2024-02-14T06:05:30;2.57;;;1.60;;
15151;SDS011;7676;50.900;6.234;2024-02-14T06:20:33;1.80;;;1.67;;
15151;SDS011;7676;50.900;6.234;2024-02-14T06:35:35;2.47;;;1.80;;
15151;SDS011;7676;50.900;6.234;2024-02-14T06:50:39;2.33;;;2.10;;
15151;SDS011;7676;50.900;6.234;2024-02-14T07:05:42;2.43;;;2.00;;
15151;SDS011;7676;50.900;6.234;2024-02-14T07:20:45;1.93;;;1.53;;
15151;SDS011;7676;50.900;6.234;2024-02-14T07:35:48;2.97;;;1.60;;
15151;SDS011;7676;50.900;6.234;2024-02-14T07:50:50;3.10;;;1.70;;
15151;SDS011;7676;50.900;6.234;2024-02-14T08:05:53;2.70;;;1.63;;
15151;SDS011;7676;50.900;6.234;2024-02-14T08:20:55;2.87;;;1.60;;
15151;SDS011;7676;50.900;6.234;2024-02-14T08:35:58;2.37;;;1.17;;
15151;SDS011;7676;50.900;6.234;2024-02-14T08:51:02;2.87;;;1.30;;
15151;SDS011;7676;50.900;6.234;2024-02-14T09:06:06;3.27;;;1.27;;
15151;SDS011;7676;50.900;6.234;2024-02-14T09:21:08;2.73;;;1.13;;
15151;SDS011;7676;50.900;6.234;2024-02-14T09:36:11;2.60;;;1.20;;
15151;SDS011;7676;50.900;6.234;2024-02-14T09:51:13;3.87;;;1.27;;
15151;SDS011;7676;50.900;6.234;2024-02-14T10:06:19;2.23;;;1.10;;
15151;SDS011;7676;50.900;6.234;2024-02-14T10:21:22;4.33;;;1.10;;
15151;SDS011;7676;50.900;6.234;2024-02-14T10:36:27;3.13;;;1.10;;
15151;SDS011;7676;50.900;6.234;2024-02-14T10:51:30;3.27;;;1.33;;
15151;SDS011;7676;50.900;6.234;2024-02-14T11:06:46;3.67;;;1.07;;
15151;SDS011;7676;50.900;6.234;2024-02-14T11:21:50;2.57;;;0.93;;
15151;SDS011;7676;50.900;6.234;2024-02-14T11:36:53;2.80;;;1.33;;
15151;SDS011;7676;50.900;6.234;2024-02-14T11:51:56;1.47;;;0.80;;
15151;SDS011;7676;50.900;6.234;2024-02-14T12:06:58;1.80;;;0.60;;
15151;SDS011;7676;50.900;6.234;2024-02-14T12:22:01;0.90;;;0.53;;
15151;SDS011;7676;50.900;6.234;2024-02-14T12:37:05;1.53;;;0.60;;
15151;SDS011;7676;50.900;6.234;2024-02-14T12:52:08;0.53;;;0.40;;
15151;SDS011;7676;50.900;6.234;2024-02-14T13:07:11;0.90;;;0.67;;
15151;SDS011;7676;50.900;6.234;2024-02-14T13:22:13;0.60;;;0.47;;
15151;SDS011;7676;50.900;6.234;2024-02-14T13:37:17;0.80;;;0.30;;
15151;SDS011;7676;50.900;6.234;2024-02-14T13:52:19;0.70;;;0.40;;
15151;SDS011;7676;50.900;6.234;2024-02-14T14:07:22;0.57;;;0.40;;
15151;SDS011;7676;50.900;6.234;2024-02-14T14:22:26;0.50;;;0.50;;
15151;SDS011;7676;50.900;6.234;2024-02-14T14:37:38;0.80;;;0.50;;
15151;SDS011;7676;50.900;6.234;2024-02-14T14:52:41;0.70;;;0.50;;
15151;SDS011;7676;50.900;6.234;2024-02-14T15:07:45;0.83;;;0.50;;
15151;SDS011;7676;50.900;6.234;2024-02-14T15:22:48;0.77;;;0.50;;
15151;SDS011;7676;50.900;6.234;2024-02-14T15:37:51;0.67;;;0.60;;
15151;SDS011;7676;50.900;6.234;2024-02-14T15:52:55;1.57;;;1.30;;
15151;SDS011;7676;50.900;6.234;2024-02-14T16:07:58;1.27;;;1.00;;
15151;SDS011;7676;50.900;6.234;2024-02-14T16:23:01;1.17;;;0.97;;
15151;SDS011;7676;50.900;6.234;2024-02-14T16:38:03;0.70;;;0.70;;
15151;SDS011;7676;50.900;6.234;2024-02-14T16:53:06;1.70;;;1.27;;
15151;SDS011;7676;50.900;6.234;2024-02-14T17:08:09;1.10;;;0.83;;
15151;SDS011;7676;50.900;6.234;2024-02-14T17:23:11;3.13;;;2.20;;
15151;SDS011;7676;50.900;6.234;2024-02-14T17:38:14;1.70;;;1.37;;
15151;SDS011;7676;50.900;6.234;2024-02-14T17:53:17;1.40;;;1.10;;
15151;SDS011;7676;50.900;6.234;2024-02-14T18:08:20;1.63;;;1.50;;
15151;SDS011;7676;50.900;6.234;2024-02-14T18:23:23;1.60;;;1.47;;
15151;SDS011;7676;50.900;6.234;2024-02-14T18:38:25;3.73;;;1.80;;
15151;SDS011;7676;50.900;6.234;2024-02-14T18:53:33;2.67;;;2.33;;
15151;SDS011;7676;50.900;6.234;2024-02-14T19:08:35;2.30;;;2.10;;
15151;SDS011;7676;50.900;6.234;2024-02-14T19:23:38;5.03;;;2.50;;
15151;SDS011;7676;50.900;6.234;2024-02-14T19:38:41;4.53;;;2.93;;
15151;SDS011;7676;50.900;6.234;2024-02-14T19:53:44;3.30;;;2.70;;
15151;SDS011;7676;50.900;6.234;2024-02-14T20:08:46;4.93;;;2.87;;
15151;SDS011;7676;50.900;6.234;2024-02-14T20:23:50;4.40;;;3.10;;
15151;SDS011;7676;50.900;6.234;2024-02-14T20:38:53;6.90;;;3.57;;
15151;SDS011;7676;50.900;6.234;2024-02-14T20:53:57;5.33;;;3.83;;
15151;SDS011;7676;50.900;6.234;2024-02-14T21:09:00;6.77;;;4.57;;
15151;SDS011;7676;50.900;6.234;2024-02-14T21:24:03;6.13;;;4.00;;
15151;SDS011;7676;50.900;6.234;2024-02-14T21:39:07;6.37;;;3.03;;
15151;SDS011;7676;50.900;6.234;2024-02-14T21:54:13;6.53;;;3.83;;
15151;SDS011;7676;50.900;6.234;2024-02-14T22:09:15;4.80;;;3.00;;
15151;SDS011;7676;50.900;6.234;2024-02-14T22:24:19;5.87;;;3.50;;
15151;SDS011;7676;50.900;6.234;2024-02-14T22:39:23;6.63;;;3.73;;
15151;SDS011;7676;50.900;6.234;2024-02-14T22:54:25;11.87;;;4.10;;
15151;SDS011;7676;50.900;6.234;2024-02-14T23:09:28;5.60;;;3.10;;
15151;SDS011;7676;50.900;6.234;2024-02-14T23:24:31;7.53;;;4.40;;
15151;SDS011;7676;50.900;6.234;2024-02-14T23:39:33;5.33;;;3.70;;
15151;SDS011;7676;50.900;6.234;2024-02-14T23:54:36;6.10;;;3.00;;
